createdAt,value
2019-04-04T00:02:13.109Z,49.08
2019-04-04T00:05:10.085Z,48.68
2019-04-04T00:08:06.025Z,57.20
2019-04-04T00:11:01.241Z,61.80
2019-04-04T00:13:57.766Z,59.65
2019-04-04T00:16:53.286Z,56.23
2019-04-04T00:19:49.775Z,57.03
2019-04-04T00:22:45.404Z,58.38
2019-04-04T00:25:41.055Z,57.85
2019-04-04T00:28:36.758Z,56.18
2019-04-04T00:31:32.916Z,58.02
2019-04-04T00:34:28.652Z,63.05
2019-04-04T00:37:23.695Z,59.98
2019-04-04T00:40:19.259Z,64.72
2019-04-04T00:43:15.091Z,69.80
2019-04-04T00:46:10.822Z,75.97
2019-04-04T00:49:07.493Z,84.80
2019-04-04T00:52:03.261Z,95.00
2019-04-04T00:54:58.535Z,91.63
2019-04-04T00:57:53.529Z,91.50
2019-04-04T01:00:48.503Z,92.47
2019-04-04T01:03:44.099Z,87.92
2019-04-04T01:06:39.968Z,82.00
2019-04-04T01:09:36.373Z,78.78
2019-04-04T01:12:33.834Z,83.92
2019-04-04T01:15:31.147Z,85.00
2019-04-04T01:18:26.677Z,84.55
2019-04-04T01:21:22.943Z,83.90
2019-04-04T01:24:20.847Z,86.67
2019-04-04T01:27:18.640Z,87.15
2019-04-04T01:30:17.395Z,90.42
2019-04-04T01:33:15.662Z,90.85
2019-04-04T01:36:12.438Z,89.37
2019-04-04T01:39:11.401Z,89.70
2019-04-04T01:42:09.799Z,91.28
2019-04-04T01:45:07.913Z,92.27
2019-04-04T01:48:06.110Z,97.20
2019-04-04T01:51:02.811Z,112.75
2019-04-04T01:54:01.000Z,118.60
2019-04-04T01:56:56.381Z,117.25
2019-04-04T01:59:51.948Z,106.35
2019-04-04T02:02:49.911Z,109.57
2019-04-04T02:05:45.354Z,108.25
2019-04-04T02:08:40.722Z,106.25
2019-04-04T02:11:37.610Z,108.72
2019-04-04T02:14:33.167Z,111.17
2019-04-04T02:17:29.075Z,106.17
2019-04-04T02:20:27.453Z,104.63
2019-04-04T02:23:23.034Z,102.17
2019-04-04T02:26:19.065Z,115.05
2019-04-04T02:29:15.054Z,114.50
2019-04-04T02:32:14.340Z,112.60
2019-04-04T02:35:11.579Z,111.10
2019-04-04T02:38:07.529Z,103.05
2019-04-04T02:41:03.348Z,101.12
2019-04-04T02:43:59.724Z,102.72
2019-04-04T02:46:55.880Z,101.27
2019-04-04T02:49:51.669Z,113.28
2019-04-04T02:52:48.116Z,104.80
2019-04-04T02:55:44.088Z,98.37
2019-04-04T02:58:41.305Z,95.17
2019-04-04T03:01:40.277Z,85.40
2019-04-04T03:04:36.942Z,92.15
2019-04-04T03:07:33.544Z,82.08
2019-04-04T03:10:30.211Z,89.45
2019-04-04T03:13:31.277Z,86.67
2019-04-04T03:16:25.260Z,82.30
2019-04-04T03:19:21.891Z,67.17
2019-04-04T03:22:17.840Z,78.40
2019-04-04T03:25:15.734Z,61.60
2019-04-04T03:28:11.264Z,64.00
2019-04-04T03:31:06.740Z,65.17
2019-04-04T03:34:08.393Z,66.70
2019-04-04T03:37:05.950Z,77.95
2019-04-04T03:40:01.381Z,59.63
2019-04-04T03:42:57.872Z,55.90
2019-04-04T03:46:00.165Z,52.10
2019-04-04T03:48:53.903Z,50.28
2019-04-04T03:51:51.803Z,48.30
2019-04-04T03:54:49.059Z,51.20
2019-04-04T03:57:45.843Z,52.13
2019-04-04T04:00:42.501Z,52.93
2019-04-04T04:03:38.964Z,55.33
2019-04-04T04:06:35.116Z,55.40
2019-04-04T04:09:30.449Z,56.18
2019-04-04T04:12:25.666Z,58.50
2019-04-04T04:15:21.504Z,55.75
2019-04-04T04:18:21.256Z,55.20
2019-04-04T04:21:16.115Z,56.02
2019-04-04T04:24:12.623Z,46.80
2019-04-04T04:27:14.451Z,44.40
2019-04-04T04:30:07.588Z,45.50
2019-04-04T04:33:03.092Z,45.52
2019-04-04T04:35:59.212Z,45.08
2019-04-04T04:38:59.898Z,44.55
2019-04-04T04:41:57.089Z,45.40
2019-04-04T04:44:54.141Z,45.50
2019-04-04T04:47:50.713Z,44.67
2019-04-04T04:50:47.728Z,38.23
2019-04-04T04:53:45.101Z,36.45
2019-04-04T04:56:41.738Z,37.30
2019-04-04T04:59:37.768Z,38.08
2019-04-04T05:02:36.445Z,37.70
2019-04-04T05:05:33.909Z,38.45
2019-04-04T05:08:33.510Z,36.68
2019-04-04T05:11:30.877Z,40.20
2019-04-04T05:14:30.651Z,37.85
2019-04-04T05:17:28.495Z,38.85
2019-04-04T05:20:29.448Z,38.95
2019-04-04T05:23:21.835Z,39.03
2019-04-04T05:26:38.540Z,39.00
2019-04-04T05:29:24.806Z,36.60
2019-04-04T05:32:23.671Z,37.00
2019-04-04T05:35:21.397Z,38.33
2019-04-04T05:38:21.471Z,36.75
2019-04-04T05:41:25.164Z,37.53
2019-04-04T05:44:21.090Z,37.15
2019-04-04T05:47:17.668Z,37.48
2019-04-04T05:50:16.600Z,35.20
2019-04-04T05:53:13.568Z,35.75
2019-04-04T05:56:13.005Z,36.08
2019-04-04T05:59:11.309Z,37.05
2019-04-04T06:02:11.071Z,34.27
2019-04-04T06:05:16.991Z,34.08
2019-04-04T06:08:14.852Z,32.13
2019-04-04T06:11:16.258Z,33.90
2019-04-04T06:14:16.060Z,31.52
2019-04-04T06:17:13.334Z,32.48
2019-04-04T06:20:14.985Z,32.75
2019-04-04T06:23:12.838Z,27.58
2019-04-04T06:26:09.545Z,27.70
2019-04-04T06:29:07.932Z,30.48
2019-04-04T06:32:08.931Z,27.52
2019-04-04T06:35:07.985Z,27.50
2019-04-04T06:38:08.623Z,27.45
2019-04-04T06:41:06.385Z,27.15
2019-04-04T06:44:03.806Z,28.40
2019-04-04T06:47:02.184Z,27.60
2019-04-04T06:50:02.762Z,24.80
2019-04-04T06:52:59.976Z,26.02
2019-04-04T06:56:00.405Z,27.25
2019-04-04T06:59:05.387Z,26.10
2019-04-04T07:02:05.080Z,25.23
2019-04-04T07:04:59.974Z,29.37
2019-04-04T07:07:57.940Z,29.85
2019-04-04T07:10:58.259Z,23.67
2019-04-04T07:13:51.548Z,23.95
2019-04-04T07:16:47.613Z,22.22
2019-04-04T07:19:46.144Z,21.23
2019-04-04T07:22:44.534Z,19.17
2019-04-04T07:25:39.818Z,21.70
2019-04-04T07:28:46.114Z,21.17
2019-04-04T07:31:41.772Z,22.80
2019-04-04T07:34:45.810Z,22.13
2019-04-04T07:37:43.680Z,20.62
2019-04-04T07:40:49.426Z,21.05
2019-04-04T07:44:01.594Z,19.32
2019-04-04T07:46:57.820Z,19.57
2019-04-04T07:49:56.153Z,19.87
2019-04-04T07:53:04.242Z,20.45
2019-04-04T07:56:04.019Z,19.30
2019-04-04T07:59:04.341Z,19.45
2019-04-04T08:02:10.211Z,20.43
2019-04-04T08:05:08.602Z,21.77
2019-04-04T08:08:10.623Z,21.07
2019-04-04T08:11:14.650Z,21.12
2019-04-04T08:14:20.643Z,18.57
2019-04-04T08:17:35.800Z,20.35
2019-04-04T08:24:15.403Z,22.05
2019-04-04T08:27:34.299Z,20.70
2019-04-04T08:33:25.027Z,20.00
2019-04-04T08:36:22.899Z,19.25
2019-04-04T08:39:20.709Z,20.10
2019-04-04T08:42:30.262Z,20.37
2019-04-04T08:45:27.983Z,20.12
2019-04-04T08:48:24.591Z,19.57
2019-04-04T08:51:22.695Z,20.37
2019-04-04T08:54:20.748Z,20.70
2019-04-04T08:57:17.999Z,20.23
2019-04-04T09:00:16.327Z,20.35
2019-04-04T09:03:15.031Z,20.95
2019-04-04T09:06:12.639Z,21.20
2019-04-04T09:09:13.221Z,19.98
2019-04-04T09:12:18.596Z,20.80
2019-04-04T09:15:17.517Z,20.27
2019-04-04T09:18:16.731Z,19.30
2019-04-04T09:21:16.727Z,19.80
2019-04-04T09:24:25.759Z,21.30
2019-04-04T09:27:27.331Z,20.15
2019-04-04T09:30:53.116Z,19.82
2019-04-04T09:34:36.604Z,20.23
2019-04-04T09:38:05.888Z,21.45
2019-04-04T09:41:19.186Z,21.02
2019-04-04T09:44:12.925Z,20.20
2019-04-04T09:47:27.214Z,21.17
2019-04-04T09:50:29.376Z,21.52
2019-04-04T09:53:29.241Z,21.20
2019-04-04T09:56:29.725Z,19.73
2019-04-04T09:59:33.109Z,20.27
2019-04-04T10:02:31.749Z,20.65
2019-04-04T10:05:29.717Z,20.52
2019-04-04T10:08:27.931Z,20.95
2019-04-04T10:11:27.708Z,20.50
2019-04-04T10:14:28.890Z,19.65
2019-04-04T10:17:26.431Z,24.50
2019-04-04T10:20:23.195Z,22.32
2019-04-04T10:23:19.331Z,19.12
2019-04-04T10:29:29.203Z,19.15
2019-04-04T10:32:25.782Z,22.45
2019-04-04T10:35:24.489Z,22.35
2019-04-04T10:38:21.105Z,25.55
2019-04-04T10:41:17.603Z,28.20
2019-04-04T10:44:12.999Z,21.55
2019-04-04T10:47:09.587Z,23.27
2019-04-04T10:50:05.224Z,20.95
2019-04-04T10:53:01.652Z,22.40
2019-04-04T10:55:56.996Z,20.25
2019-04-04T10:58:52.300Z,22.27
2019-04-04T11:02:46.015Z,21.70
2019-04-04T11:05:54.132Z,21.55
2019-04-04T11:08:52.088Z,21.77
2019-04-04T11:11:50.031Z,21.05
2019-04-04T11:14:46.738Z,21.07
2019-04-04T11:17:44.977Z,21.05
2019-04-04T11:20:42.431Z,19.77
2019-04-04T11:23:40.278Z,21.25
2019-04-04T11:26:37.271Z,20.92
2019-04-04T11:29:40.652Z,20.62
2019-04-04T11:33:09.608Z,21.82
2019-04-04T11:36:08.697Z,19.42
2019-04-04T11:39:07.528Z,19.90
2019-04-04T11:42:02.405Z,20.50
2019-04-04T11:44:58.260Z,20.50
2019-04-04T11:47:56.275Z,19.90
2019-04-04T11:50:53.362Z,19.55
2019-04-04T11:53:49.149Z,19.50
2019-04-04T11:56:47.313Z,18.92
2019-04-04T11:59:50.456Z,19.32
2019-04-04T12:02:49.972Z,19.65
2019-04-04T12:05:47.571Z,19.50
2019-04-04T12:08:45.910Z,19.77
2019-04-04T12:11:57.427Z,20.02
2019-04-04T12:15:03.474Z,21.62
2019-04-04T12:18:17.548Z,21.07
2019-04-04T12:21:16.156Z,19.37
2019-04-04T12:24:12.607Z,19.90
2019-04-04T12:27:09.663Z,19.52
2019-04-04T12:30:06.644Z,21.70
2019-04-04T12:33:02.910Z,22.62
2019-04-04T12:35:59.986Z,21.00
2019-04-04T12:39:01.529Z,21.90
2019-04-04T12:42:08.176Z,20.97
2019-04-04T12:45:10.301Z,18.50
2019-04-04T12:48:11.474Z,19.40
2019-04-04T12:51:07.969Z,19.75
2019-04-04T12:54:05.819Z,20.82
2019-04-04T12:57:12.183Z,19.65
2019-04-04T13:00:10.749Z,21.97
2019-04-04T13:03:07.609Z,19.48
2019-04-04T13:06:03.690Z,18.37
2019-04-04T13:08:59.674Z,18.20
2019-04-04T13:11:55.439Z,17.95
2019-04-04T13:14:53.272Z,17.10
2019-04-04T13:17:51.978Z,17.25
2019-04-04T13:20:50.212Z,17.23
2019-04-04T13:23:50.199Z,16.62
2019-04-04T13:26:47.979Z,16.52
2019-04-04T13:29:44.752Z,17.42
2019-04-04T13:32:41.443Z,16.10
2019-04-04T13:35:38.011Z,17.10
2019-04-04T13:38:44.012Z,16.55
2019-04-04T13:41:57.065Z,16.75
2019-04-04T13:44:53.567Z,16.40
2019-04-04T13:47:49.266Z,16.65
2019-04-04T13:50:44.854Z,17.10
2019-04-04T13:53:41.457Z,15.98
2019-04-04T13:56:39.410Z,17.27
2019-04-04T13:59:34.849Z,17.62
2019-04-04T14:02:32.363Z,17.85
2019-04-04T14:05:28.750Z,17.75
2019-04-04T14:08:30.384Z,16.82
2019-04-04T14:11:28.779Z,16.97
2019-04-04T14:14:28.965Z,17.62
2019-04-04T14:17:25.425Z,18.80
2019-04-04T14:20:21.936Z,18.10
2019-04-04T14:23:19.481Z,19.05
2019-04-04T14:26:16.048Z,19.32
2019-04-04T14:29:12.188Z,18.35
2019-04-04T14:32:09.005Z,19.92
2019-04-04T14:35:06.327Z,21.62
2019-04-04T14:38:02.197Z,20.57
2019-04-04T14:41:10.182Z,20.08
2019-04-04T14:43:54.880Z,22.05
2019-04-04T14:46:51.445Z,21.65
2019-04-04T14:49:47.797Z,23.77
2019-04-04T14:52:45.157Z,23.95
2019-04-04T14:55:42.232Z,22.93
2019-04-04T14:58:38.270Z,23.67
2019-04-04T15:01:36.830Z,24.67
2019-04-04T15:04:33.216Z,24.60
2019-04-04T15:07:30.206Z,27.02
2019-04-04T15:10:26.574Z,24.90
2019-04-04T15:13:23.181Z,24.40
2019-04-04T15:16:28.749Z,24.77
2019-04-04T15:19:25.090Z,22.52
2019-04-04T15:22:21.523Z,19.82
2019-04-04T15:25:19.084Z,20.45
2019-04-04T15:28:16.456Z,19.45
2019-04-04T15:31:14.321Z,19.82
2019-04-04T15:34:11.350Z,19.02
2019-04-04T15:37:09.548Z,19.00
2019-04-04T15:40:06.620Z,19.35
2019-04-04T15:43:05.434Z,19.75
2019-04-04T15:46:02.441Z,20.37
2019-04-04T15:48:58.839Z,20.10
2019-04-04T15:51:59.516Z,18.95
2019-04-04T15:54:54.003Z,19.32
2019-04-04T15:57:51.012Z,18.65
2019-04-04T16:00:51.692Z,19.62
2019-04-04T16:03:48.218Z,17.55
2019-04-04T16:06:46.132Z,18.73
2019-04-04T16:09:43.032Z,18.10
2019-04-04T16:12:39.684Z,18.73
2019-04-04T16:15:36.545Z,18.45
2019-04-04T16:18:32.357Z,17.05
2019-04-04T16:21:27.965Z,17.67
2019-04-04T16:24:23.023Z,17.82
2019-04-04T16:27:19.116Z,17.95
2019-04-04T16:30:16.120Z,18.12
2019-04-04T16:33:12.026Z,19.67
2019-04-04T16:36:08.158Z,18.07
2019-04-04T16:39:05.766Z,17.60
2019-04-04T16:42:02.809Z,17.52
2019-04-04T16:44:59.499Z,17.50
2019-04-04T16:47:56.181Z,17.37
2019-04-04T16:50:52.710Z,17.90
2019-04-04T16:53:50.438Z,18.27
2019-04-04T16:56:48.204Z,17.95
2019-04-04T16:59:45.299Z,17.80
2019-04-04T17:02:43.646Z,18.37
2019-04-04T17:05:41.446Z,17.92
2019-04-04T17:08:37.202Z,18.70
2019-04-04T17:11:33.491Z,18.77
2019-04-04T17:14:33.045Z,19.17
2019-04-04T17:17:27.075Z,18.10
2019-04-04T17:20:23.471Z,18.95
2019-04-04T17:23:19.288Z,18.45
2019-04-04T17:26:16.469Z,19.23
2019-04-04T17:29:13.397Z,18.55
2019-04-04T17:32:10.867Z,18.85
2019-04-04T17:35:07.362Z,20.12
2019-04-04T17:38:04.859Z,19.42
2019-04-04T17:41:01.316Z,18.95
2019-04-04T17:43:57.661Z,20.20
2019-04-04T17:46:54.296Z,19.20
2019-04-04T17:49:50.229Z,18.52
2019-04-04T17:52:45.908Z,19.10
2019-04-04T17:55:42.420Z,19.07
2019-04-04T17:58:38.441Z,19.45
2019-04-04T18:01:34.477Z,19.10
2019-04-04T18:04:31.153Z,18.02
2019-04-04T18:07:26.993Z,18.85
2019-04-04T18:10:22.391Z,18.70
2019-04-04T18:13:17.989Z,19.20
2019-04-04T18:16:14.397Z,20.05
2019-04-04T18:19:10.774Z,20.17
2019-04-04T18:22:07.950Z,20.10
2019-04-04T18:25:04.107Z,19.90
2019-04-04T18:28:01.260Z,20.60
2019-04-04T18:30:58.004Z,20.17
2019-04-04T18:33:55.272Z,20.43
2019-04-04T18:36:51.887Z,22.32
2019-04-04T18:39:48.637Z,21.23
2019-04-04T18:42:53.104Z,19.85
2019-04-04T18:45:42.075Z,21.05
2019-04-04T18:48:38.429Z,21.65
2019-04-04T18:51:37.715Z,21.23
2019-04-04T18:54:33.129Z,21.75
2019-04-04T18:57:29.785Z,22.17
2019-04-04T19:00:25.942Z,22.30
2019-04-04T19:03:22.497Z,22.35
2019-04-04T19:06:18.985Z,21.33
2019-04-04T19:09:16.035Z,21.62
2019-04-04T19:12:12.060Z,22.55
2019-04-04T19:15:08.149Z,20.97
2019-04-04T19:18:04.502Z,22.02
2019-04-04T19:21:00.736Z,23.20
2019-04-04T19:23:57.379Z,23.85
2019-04-04T19:26:53.579Z,23.87
2019-04-04T19:29:50.649Z,24.52
2019-04-04T19:32:46.926Z,25.08
2019-04-04T19:35:44.310Z,24.47
2019-04-04T19:38:43.057Z,25.30
2019-04-04T19:41:42.331Z,25.55
2019-04-04T19:44:52.187Z,25.60
2019-04-04T19:47:37.128Z,26.10
2019-04-04T19:50:33.422Z,26.80
2019-04-04T19:53:31.546Z,26.77
2019-04-04T19:56:28.649Z,27.90
2019-04-04T19:59:27.310Z,27.35
2019-04-04T20:02:25.131Z,27.42
2019-04-04T20:05:22.165Z,28.02
2019-04-04T20:08:18.764Z,27.67
2019-04-04T20:11:14.426Z,27.75
2019-04-04T20:14:12.096Z,28.12
2019-04-04T20:17:07.756Z,28.05
2019-04-04T20:20:03.417Z,27.82
2019-04-04T20:22:59.293Z,28.90
2019-04-04T20:25:57.092Z,27.85
2019-04-04T20:28:53.282Z,27.98
2019-04-04T20:31:49.276Z,27.70
2019-04-04T20:34:45.386Z,28.17
2019-04-04T20:37:41.399Z,27.85
2019-04-04T20:40:37.420Z,28.25
2019-04-04T20:43:42.705Z,31.27
2019-04-04T20:46:30.157Z,28.12
2019-04-04T20:49:26.332Z,28.90
2019-04-04T20:52:22.784Z,28.30
2019-04-04T20:55:19.000Z,27.13
2019-04-04T20:58:14.876Z,28.60
2019-04-04T21:01:10.934Z,28.17
2019-04-04T21:04:07.008Z,28.70
2019-04-04T21:07:03.026Z,27.98
2019-04-04T21:09:59.106Z,28.17
2019-04-04T21:12:55.430Z,28.80
2019-04-04T21:15:51.036Z,28.52
2019-04-04T21:18:47.351Z,28.52
2019-04-04T21:21:43.421Z,28.50
2019-04-04T21:24:39.028Z,29.25
2019-04-04T21:27:34.823Z,29.98
2019-04-04T21:30:30.648Z,28.32
2019-04-04T21:33:26.677Z,28.60
2019-04-04T21:36:22.838Z,28.50
2019-04-04T21:39:18.891Z,29.07
2019-04-04T21:42:14.321Z,28.75
2019-04-04T21:45:15.064Z,29.12
2019-04-04T21:48:07.297Z,29.00
2019-04-04T21:51:02.684Z,29.02
2019-04-04T21:53:57.824Z,28.87
2019-04-04T21:56:52.879Z,28.15
2019-04-04T21:59:48.718Z,28.85
2019-04-04T22:02:44.646Z,29.80
2019-04-04T22:05:40.446Z,28.30
2019-04-04T22:08:36.541Z,28.57
2019-04-04T22:11:32.956Z,29.23
2019-04-04T22:14:28.840Z,29.37
2019-04-04T22:17:24.757Z,28.95
2019-04-04T22:20:20.317Z,28.95
2019-04-04T22:23:17.099Z,29.72
2019-04-04T22:26:12.914Z,29.15
2019-04-04T22:29:08.780Z,28.07
2019-04-04T22:32:06.109Z,28.23
2019-04-04T22:35:01.640Z,27.87
2019-04-04T22:37:57.298Z,26.95
2019-04-04T22:40:53.191Z,26.40
2019-04-04T22:43:49.226Z,26.60
2019-04-04T22:46:47.560Z,26.15
2019-04-04T22:49:44.397Z,25.32
2019-04-04T22:52:41.545Z,25.23
2019-04-04T22:55:38.113Z,25.15
2019-04-04T22:58:35.081Z,24.18
2019-04-04T23:01:31.181Z,23.75
2019-04-04T23:04:27.613Z,23.15
2019-04-04T23:07:24.252Z,23.10
2019-04-04T23:10:21.378Z,24.30
2019-04-04T23:13:17.788Z,27.13
2019-04-04T23:16:13.955Z,23.83
2019-04-04T23:19:10.776Z,23.60
2019-04-04T23:22:06.894Z,22.82
2019-04-04T23:25:03.138Z,22.62
2019-04-04T23:27:59.393Z,21.87
2019-04-04T23:30:56.116Z,20.00
2019-04-04T23:33:51.870Z,19.82
2019-04-04T23:36:47.612Z,19.77
2019-04-04T23:39:43.208Z,19.02
2019-04-04T23:42:38.976Z,19.10
2019-04-04T23:45:34.841Z,19.45
2019-04-04T23:48:31.357Z,19.50
2019-04-04T23:51:27.157Z,20.12
2019-04-04T23:54:24.233Z,19.62
2019-04-04T23:57:20.542Z,20.02
